createdAt,value
2022-12-12T05:44:54.909Z,5.10
2022-12-12T05:47:22.378Z,5.10
2022-12-12T05:49:49.726Z,5.60
2022-12-12T05:52:17.211Z,5.80
2022-12-12T05:54:44.571Z,5.50
2022-12-12T05:57:11.984Z,5.30
2022-12-12T05:59:39.237Z,4.80
2022-12-12T06:02:06.639Z,4.70
2022-12-12T06:04:34.005Z,4.80
2022-12-12T06:07:01.383Z,5.30
2022-12-12T06:09:28.836Z,4.90
2022-12-12T06:11:56.230Z,4.40
2022-12-12T06:14:23.710Z,4.50
2022-12-12T06:16:51.253Z,4.80
2022-12-12T06:19:20.076Z,4.70
2022-12-12T06:21:47.841Z,4.90
2022-12-12T06:24:15.245Z,5.20
2022-12-12T06:26:42.621Z,5.60
2022-12-12T06:29:10.112Z,5.20
2022-12-12T06:31:37.561Z,5.30
2022-12-12T06:34:04.922Z,5.40
2022-12-12T06:36:32.289Z,5.50
2022-12-12T06:39:01.354Z,5.70
2022-12-12T06:41:31.202Z,5.50
2022-12-12T06:43:58.743Z,5.60
2022-12-12T11:25:02.750Z,10.00
2022-12-12T11:27:39.434Z,9.90
2022-12-12T11:30:21.428Z,10.10
2022-12-12T11:32:50.095Z,10.60
2022-12-12T11:35:25.877Z,10.60
2022-12-12T11:37:57.658Z,10.80
2022-12-12T11:40:31.918Z,10.90
2022-12-12T11:43:31.274Z,11.10
2022-12-12T11:46:03.566Z,11.50
2022-12-12T11:48:48.941Z,11.20
2022-12-12T11:51:33.890Z,11.00
2022-12-12T11:54:19.153Z,11.40
2022-12-12T11:56:50.039Z,11.60
2022-12-12T11:59:59.144Z,11.30
2022-12-12T12:02:32.149Z,11.70
2022-12-12T12:05:14.504Z,11.70
2022-12-12T12:08:10.424Z,11.70
2022-12-12T12:11:09.684Z,11.70
2022-12-12T12:14:17.939Z,11.40
2022-12-12T12:17:20.315Z,11.50
2022-12-12T12:20:18.505Z,11.70
2022-12-12T12:23:05.189Z,12.00
2022-12-12T12:26:02.619Z,11.80
2022-12-12T12:28:54.577Z,11.70
2022-12-12T12:31:37.047Z,11.90
2022-12-12T12:34:25.018Z,11.80
2022-12-12T12:37:07.563Z,11.60
2022-12-12T12:39:58.932Z,11.50
2022-12-12T12:42:29.121Z,11.30
2022-12-12T12:45:45.744Z,11.10
2022-12-12T12:48:28.869Z,10.70
2022-12-12T12:50:56.121Z,10.40
2022-12-12T12:53:38.951Z,10.20
2022-12-12T12:56:28.837Z,10.00
2022-12-12T12:59:00.945Z,9.80
2022-12-12T13:01:36.785Z,9.40
2022-12-12T13:09:46.788Z,9.40
2022-12-12T13:15:02.017Z,8.70
2022-12-12T13:17:59.145Z,8.70
2022-12-12T13:20:27.308Z,8.30
2022-12-12T13:23:06.959Z,8.20
2022-12-12T13:25:58.212Z,7.90
2022-12-12T13:28:31.668Z,7.70
2022-12-12T13:31:13.064Z,7.60
2022-12-12T17:05:43.914Z,6.50
2022-12-12T17:08:11.542Z,6.60
2022-12-12T17:10:39.568Z,6.40
